createdAt,value
2023-04-22T00:02:01.698Z,9.90
2023-04-22T00:04:29.878Z,14.53
2023-04-22T00:06:57.530Z,9.83
2023-04-22T00:09:25.062Z,10.57
2023-04-22T00:11:52.659Z,11.80
2023-04-22T00:14:20.444Z,8.33
2023-04-22T00:16:47.942Z,10.97
2023-04-22T00:19:17.091Z,11.40
2023-04-22T00:21:44.566Z,12.60
2023-04-22T00:24:12.080Z,9.73
2023-04-22T00:26:39.551Z,8.93
2023-04-22T00:29:07.050Z,9.93
2023-04-22T00:31:34.690Z,14.23
2023-04-22T00:34:02.233Z,9.83
2023-04-22T00:36:31.411Z,10.07
2023-04-22T00:38:59.089Z,9.30
2023-04-22T00:41:27.989Z,9.97
2023-04-22T00:43:56.596Z,10.23
2023-04-22T00:46:25.017Z,9.37
2023-04-22T00:48:53.499Z,10.90
2023-04-22T00:51:21.547Z,9.60
2023-04-22T00:53:50.445Z,11.53
2023-04-22T00:56:18.400Z,11.87
2023-04-22T00:58:45.909Z,8.70
2023-04-22T01:01:14.197Z,11.07
2023-04-22T01:03:42.020Z,15.57
2023-04-22T01:06:10.015Z,13.63
2023-04-22T01:08:37.559Z,9.20
2023-04-22T01:11:06.498Z,9.20
2023-04-22T01:13:35.843Z,10.70
2023-04-22T01:16:03.659Z,9.13
2023-04-22T01:18:32.323Z,10.80
2023-04-22T01:20:59.836Z,13.67
2023-04-22T01:23:29.375Z,9.90
2023-04-22T01:25:57.611Z,9.07
2023-04-22T01:28:25.790Z,11.27
2023-04-22T01:30:53.469Z,11.30
2023-04-22T01:33:21.167Z,12.03
2023-04-22T01:35:48.686Z,14.03
2023-04-22T01:38:16.327Z,10.93
2023-04-22T01:40:45.264Z,13.93
2023-04-22T01:43:12.868Z,9.83
2023-04-22T01:45:40.796Z,9.50
2023-04-22T01:48:08.470Z,11.20
2023-04-22T01:50:36.302Z,9.27
2023-04-22T01:53:04.054Z,10.27
2023-04-22T01:55:36.312Z,9.27
2023-04-22T01:58:06.452Z,10.33
2023-04-22T02:00:34.139Z,11.27
2023-04-22T02:03:02.062Z,10.87
2023-04-22T02:05:29.689Z,9.83
2023-04-22T02:07:57.464Z,10.33
2023-04-22T02:10:25.029Z,11.40
2023-04-22T02:12:52.529Z,11.47
2023-04-22T02:15:22.712Z,10.93
2023-04-22T02:17:51.571Z,12.00
2023-04-22T02:20:19.323Z,10.80
2023-04-22T02:22:47.075Z,10.13
2023-04-22T02:25:14.750Z,8.93
2023-04-22T02:27:43.294Z,13.20
2023-04-22T02:30:11.540Z,9.60
2023-04-22T02:32:40.444Z,12.03
2023-04-22T02:35:08.593Z,10.50
2023-04-22T02:37:36.366Z,12.00
2023-04-22T02:40:04.661Z,9.27
2023-04-22T02:42:32.440Z,10.00
2023-04-22T02:45:00.121Z,10.83
2023-04-22T02:47:27.639Z,14.47
2023-04-22T02:49:56.409Z,11.40
2023-04-22T02:52:23.899Z,10.70
2023-04-22T02:54:51.327Z,10.97
2023-04-22T02:57:18.965Z,11.70
2023-04-22T02:59:47.505Z,11.27
2023-04-22T03:02:18.239Z,10.10
2023-04-22T03:05:06.455Z,10.00
2023-04-22T03:07:35.156Z,9.07
2023-04-22T03:10:03.252Z,12.23
2023-04-22T03:12:31.126Z,9.77
2023-04-22T03:14:58.734Z,12.40
2023-04-22T03:17:30.063Z,10.73
2023-04-22T03:19:59.567Z,13.57
2023-04-22T03:22:28.493Z,11.80
2023-04-22T03:24:58.839Z,14.00
2023-04-22T03:27:28.787Z,9.83
2023-04-22T03:29:56.337Z,13.03
2023-04-22T03:32:24.404Z,15.40
2023-04-22T03:35:02.182Z,13.47
2023-04-22T03:37:31.640Z,12.77
2023-04-22T03:39:59.258Z,12.60
2023-04-22T03:42:28.216Z,12.60
2023-04-22T03:44:55.883Z,10.73
2023-04-22T03:47:30.339Z,11.17
2023-04-22T03:50:04.153Z,10.63
2023-04-22T03:52:35.793Z,11.60
2023-04-22T03:55:03.642Z,14.07
2023-04-22T03:57:32.260Z,11.70
2023-04-22T04:00:00.917Z,9.77
2023-04-22T04:02:28.622Z,11.20
2023-04-22T04:04:57.542Z,15.80
2023-04-22T04:07:25.611Z,13.73
2023-04-22T04:09:54.648Z,11.33
2023-04-22T04:12:22.320Z,9.27
2023-04-22T04:14:49.891Z,11.57
2023-04-22T04:17:25.585Z,15.10
2023-04-22T04:19:54.468Z,11.23
2023-04-22T04:22:23.093Z,15.20
2023-04-22T04:24:58.719Z,13.50
2023-04-22T04:27:31.406Z,12.73
2023-04-22T04:29:59.406Z,13.90
2023-04-22T04:32:37.381Z,10.63
2023-04-22T04:35:09.540Z,14.27
2023-04-22T04:37:40.317Z,13.00
2023-04-22T04:40:13.787Z,16.10
2023-04-22T04:42:53.041Z,16.00
2023-04-22T04:45:25.122Z,13.47
2023-04-22T04:47:54.650Z,16.03
2023-04-22T04:50:31.430Z,14.40
2023-04-22T04:53:02.356Z,15.50
2023-04-22T04:55:40.950Z,17.83
2023-04-22T04:58:16.220Z,11.07
2023-04-22T05:00:43.861Z,14.97
2023-04-22T05:03:12.146Z,15.13
2023-04-22T05:05:40.519Z,15.37
2023-04-22T05:08:08.236Z,12.03
2023-04-22T05:10:38.324Z,12.07
2023-04-22T05:13:07.173Z,13.50
2023-04-22T05:15:34.806Z,14.33
2023-04-22T05:18:03.037Z,12.20
2023-04-22T05:20:35.348Z,13.60
2023-04-22T05:23:03.535Z,16.40
2023-04-22T05:25:56.612Z,15.90
2023-04-22T05:28:26.201Z,17.43
2023-04-22T05:30:57.059Z,14.33
2023-04-22T05:33:27.392Z,13.00
2023-04-22T05:35:55.335Z,13.93
2023-04-22T05:38:23.254Z,14.20
2023-04-22T05:40:50.745Z,11.77
2023-04-22T05:43:18.356Z,15.03
2023-04-22T05:45:53.572Z,13.33
2023-04-22T05:48:21.868Z,15.60
2023-04-22T05:51:01.462Z,14.57
2023-04-22T05:53:30.739Z,16.63
2023-04-22T05:56:00.729Z,15.73
2023-04-22T05:58:28.257Z,13.57
2023-04-22T06:01:01.725Z,15.50
2023-04-22T06:03:53.144Z,14.27
2023-04-22T06:06:21.173Z,13.67
2023-04-22T06:08:48.691Z,12.43
2023-04-22T06:11:16.198Z,15.20
2023-04-22T06:13:43.736Z,11.20
2023-04-22T06:16:13.020Z,15.87
2023-04-22T06:18:40.647Z,11.03
2023-04-22T06:21:12.368Z,12.07
2023-04-22T06:23:40.594Z,12.17
2023-04-22T06:26:08.233Z,13.30
2023-04-22T06:28:37.625Z,14.10
2023-04-22T06:31:10.601Z,15.30
2023-04-22T06:33:42.281Z,13.13
2023-04-22T06:36:10.695Z,14.97
2023-04-22T06:38:39.210Z,16.63
2023-04-22T06:41:25.221Z,10.40
2023-04-22T06:43:57.970Z,19.80
2023-04-22T06:46:43.826Z,13.17
2023-04-22T06:49:39.714Z,11.43
2023-04-22T06:52:19.138Z,9.67
2023-04-22T06:54:46.808Z,10.10
2023-04-22T06:57:14.442Z,13.27
2023-04-22T06:59:43.261Z,12.40
2023-04-22T07:02:12.779Z,9.17
2023-04-22T07:04:42.344Z,15.20
2023-04-22T07:07:10.289Z,9.57
2023-04-22T07:09:38.104Z,8.40
2023-04-22T07:12:06.253Z,8.73
2023-04-22T07:14:34.043Z,8.13
2023-04-22T07:17:01.583Z,8.60
2023-04-22T07:19:30.041Z,12.63
2023-04-22T07:21:58.885Z,12.13
2023-04-22T07:24:26.455Z,10.50
2023-04-22T07:26:53.965Z,10.47
2023-04-22T07:29:21.769Z,6.60
2023-04-22T07:31:49.336Z,8.03
2023-04-22T07:34:17.392Z,13.50
2023-04-22T07:36:45.025Z,12.63
2023-04-22T07:39:13.932Z,7.93
2023-04-22T07:41:41.430Z,10.33
2023-04-22T07:44:10.472Z,12.47
2023-04-22T07:46:38.021Z,8.73
2023-04-22T07:49:05.552Z,8.10
2023-04-22T07:51:33.068Z,11.33
2023-04-22T07:54:00.653Z,6.90
2023-04-22T07:56:29.488Z,7.63
2023-04-22T07:58:56.976Z,9.47
2023-04-22T08:01:24.512Z,9.07
2023-04-22T08:03:55.353Z,8.00
2023-04-22T08:06:23.258Z,7.73
2023-04-22T08:08:50.777Z,6.33
2023-04-22T08:11:18.491Z,11.53
2023-04-22T08:13:47.580Z,5.93
2023-04-22T08:16:15.221Z,6.83
2023-04-22T08:18:42.703Z,8.13
2023-04-22T08:21:10.808Z,10.10
2023-04-22T08:23:38.250Z,8.83
2023-04-22T08:26:05.945Z,6.90
2023-04-22T08:28:33.437Z,8.83
2023-04-22T08:31:02.300Z,6.87
2023-04-22T08:33:29.853Z,6.13
2023-04-22T08:35:57.429Z,7.90
2023-04-22T08:38:24.921Z,6.90
2023-04-22T08:40:52.739Z,12.47
2023-04-22T08:43:20.512Z,6.53
2023-04-22T08:45:48.329Z,9.20
2023-04-22T08:48:17.312Z,6.30
2023-04-22T08:50:47.918Z,5.07
2023-04-22T08:53:15.539Z,8.53
2023-04-22T08:55:45.384Z,4.87
2023-04-22T08:58:13.154Z,6.73
2023-04-22T09:00:43.212Z,6.20
2023-04-22T09:03:11.117Z,4.00
2023-04-22T09:05:41.784Z,4.20
2023-04-22T09:08:11.367Z,5.03
2023-04-22T09:10:39.609Z,5.77
2023-04-22T09:13:08.140Z,8.20
2023-04-22T09:15:35.741Z,4.70
2023-04-22T09:18:03.887Z,5.37
2023-04-22T09:20:31.749Z,4.90
2023-04-22T09:23:05.384Z,4.03
2023-04-22T09:25:35.128Z,5.77
2023-04-22T09:28:03.270Z,4.37
2023-04-22T09:30:33.060Z,5.43
2023-04-22T09:33:02.665Z,4.30
2023-04-22T09:35:31.684Z,4.00
2023-04-22T09:38:02.197Z,4.70
2023-04-22T09:40:30.854Z,3.03
2023-04-22T09:42:59.758Z,4.07
2023-04-22T09:45:32.489Z,3.27
2023-04-22T09:48:04.740Z,3.37
2023-04-22T09:50:32.257Z,5.37
2023-04-22T09:53:06.280Z,4.90
2023-04-22T09:55:36.429Z,5.80
2023-04-22T09:58:09.065Z,4.20
2023-04-22T10:00:40.741Z,6.47
2023-04-22T10:03:10.879Z,2.90
2023-04-22T10:05:38.937Z,3.40
2023-04-22T10:08:11.008Z,4.50
2023-04-22T10:10:39.840Z,4.33
2023-04-22T10:13:07.846Z,4.57
2023-04-22T10:15:37.542Z,5.70
2023-04-22T10:18:08.662Z,6.97
2023-04-22T10:20:38.738Z,5.33
2023-04-22T10:23:14.355Z,6.27
2023-04-22T10:25:42.890Z,7.53
2023-04-22T10:28:12.065Z,3.90
2023-04-22T10:30:40.820Z,3.70
2023-04-22T10:33:39.235Z,4.10
2023-04-22T10:36:11.885Z,11.80
2023-04-22T10:38:42.331Z,3.93
2023-04-22T10:41:15.422Z,3.40
2023-04-22T10:43:45.292Z,5.13
2023-04-22T10:46:55.610Z,6.70
2023-04-22T10:49:24.972Z,4.67
2023-04-22T10:51:53.861Z,4.87
2023-04-22T10:55:02.993Z,8.47
2023-04-22T10:57:37.478Z,9.97
2023-04-22T11:00:52.398Z,5.07
2023-04-22T11:03:28.270Z,8.30
2023-04-22T11:06:15.711Z,3.83
2023-04-22T11:08:45.477Z,3.93
2023-04-22T11:11:14.579Z,5.00
2023-04-22T11:13:43.736Z,4.37
2023-04-22T11:16:11.713Z,7.97
2023-04-22T11:18:39.453Z,3.73
2023-04-22T11:21:08.722Z,4.50
2023-04-22T11:23:36.694Z,4.77
2023-04-22T11:26:07.095Z,7.90
2023-04-22T11:28:36.392Z,4.70
2023-04-22T11:31:05.735Z,5.13
2023-04-22T11:33:34.053Z,4.00
2023-04-22T11:36:01.824Z,4.63
2023-04-22T11:38:29.446Z,3.63
2023-04-22T11:40:57.783Z,3.30
2023-04-22T11:43:25.444Z,3.77
2023-04-22T11:45:57.014Z,5.20
2023-04-22T11:48:25.149Z,8.70
2023-04-22T11:51:09.961Z,4.40
2023-04-22T11:53:38.635Z,4.03
2023-04-22T11:56:06.199Z,3.67
2023-04-22T11:58:33.722Z,9.03
2023-04-22T12:01:02.601Z,3.57
2023-04-22T12:03:31.720Z,4.77
2023-04-22T12:06:01.223Z,4.83
2023-04-22T12:08:33.282Z,4.47
2023-04-22T12:11:03.745Z,4.83
2023-04-22T12:13:34.679Z,3.53
2023-04-22T12:16:05.504Z,4.20
2023-04-22T12:18:34.411Z,6.00
2023-04-22T12:21:03.263Z,7.53
2023-04-22T12:23:31.494Z,6.37
2023-04-22T12:25:59.038Z,3.00
2023-04-22T12:28:26.524Z,4.50
2023-04-22T12:30:54.117Z,3.30
2023-04-22T12:33:23.105Z,3.37
2023-04-22T12:35:52.516Z,3.00
2023-04-22T12:38:20.009Z,3.67
2023-04-22T12:40:47.584Z,5.43
2023-04-22T12:43:15.143Z,3.00
2023-04-22T12:45:42.739Z,2.80
2023-04-22T12:48:10.275Z,17.37
2023-04-22T12:50:39.123Z,9.03
2023-04-22T12:53:06.668Z,6.07
2023-04-22T12:55:34.652Z,5.20
2023-04-22T12:58:02.577Z,4.20
2023-04-22T13:00:30.321Z,5.03
2023-04-22T13:02:58.035Z,4.47
2023-04-22T13:05:26.534Z,6.30
2023-04-22T13:08:06.638Z,4.53
2023-04-22T13:10:36.053Z,5.73
2023-04-22T13:15:35.496Z,5.13
2023-04-22T13:18:04.012Z,4.97
2023-04-22T13:20:31.831Z,17.77
2023-04-22T13:23:02.304Z,7.10
2023-04-22T13:25:30.093Z,6.93
2023-04-22T13:27:57.649Z,4.73
2023-04-22T13:30:25.372Z,3.53
2023-04-22T13:32:53.139Z,8.37
2023-04-22T13:35:24.796Z,2.63
2023-04-22T13:37:52.599Z,4.13
2023-04-22T13:40:21.962Z,2.70
2023-04-22T13:42:49.543Z,3.03
2023-04-22T13:45:17.169Z,3.20
2023-04-22T13:47:44.724Z,3.40
2023-04-22T13:50:12.442Z,2.77
2023-04-22T13:52:40.301Z,2.83
2023-04-22T13:55:09.265Z,5.10
2023-04-22T13:57:38.127Z,4.27
2023-04-22T14:00:06.722Z,3.20
2023-04-22T14:02:39.534Z,5.97
2023-04-22T14:05:10.506Z,5.23
2023-04-22T14:07:38.019Z,2.57
2023-04-22T14:10:08.292Z,4.10
2023-04-22T14:12:35.878Z,3.40
2023-04-22T14:15:06.351Z,2.67
2023-04-22T14:17:33.908Z,2.67
2023-04-22T14:20:01.480Z,3.27
2023-04-22T14:22:28.928Z,2.87
2023-04-22T14:24:56.463Z,3.00
2023-04-22T14:27:23.950Z,3.03
2023-04-22T14:29:52.446Z,3.13
2023-04-22T14:32:21.715Z,17.50
2023-04-22T14:34:49.298Z,13.27
2023-04-22T14:37:16.826Z,18.63
2023-04-22T14:39:44.349Z,13.00
2023-04-22T14:42:11.936Z,5.73
2023-04-22T14:44:39.485Z,4.70
2023-04-22T14:47:07.053Z,4.97
2023-04-22T14:49:40.237Z,3.43
2023-04-22T14:52:08.509Z,11.87
2023-04-22T14:54:36.841Z,7.87
2023-04-22T14:57:04.846Z,5.20
2023-04-22T14:59:32.313Z,15.37
2023-04-22T15:01:59.879Z,19.53
2023-04-22T15:04:27.556Z,6.17
2023-04-22T15:06:57.725Z,3.10
2023-04-22T15:09:25.329Z,3.07
2023-04-22T15:11:54.728Z,3.00
2023-04-22T15:14:22.210Z,3.10
2023-04-22T15:16:49.836Z,4.27
2023-04-22T15:19:17.371Z,2.23
2023-04-22T15:21:44.905Z,3.20
2023-04-22T15:24:13.715Z,4.53
2023-04-22T15:26:41.261Z,2.50
2023-04-22T15:29:08.829Z,3.70
2023-04-22T15:31:36.292Z,3.40
2023-04-22T15:34:03.819Z,2.60
2023-04-22T15:36:33.189Z,3.90
2023-04-22T15:39:01.031Z,4.00
2023-04-22T15:41:29.891Z,4.13
2023-04-22T15:43:57.381Z,2.50
2023-04-22T15:46:24.926Z,2.57
2023-04-22T15:48:52.507Z,4.50
2023-04-22T15:51:22.803Z,3.17
2023-04-22T15:53:50.453Z,2.47
2023-04-22T15:56:18.852Z,5.00
2023-04-22T15:58:47.918Z,2.50
2023-04-22T16:01:19.194Z,2.27
2023-04-22T16:03:47.852Z,2.60
2023-04-22T16:06:16.473Z,2.30
2023-04-22T16:08:45.314Z,3.00
2023-04-22T16:11:15.051Z,2.53
2023-04-22T16:13:43.173Z,3.83
2023-04-22T16:16:18.559Z,3.83
2023-04-22T16:18:46.193Z,5.40
2023-04-22T16:21:13.702Z,3.70
2023-04-22T16:23:41.448Z,2.07
2023-04-22T16:26:08.959Z,2.00
2023-04-22T16:28:36.502Z,3.67
2023-04-22T16:31:04.310Z,2.60
2023-04-22T16:33:34.030Z,2.23
2023-04-22T16:36:02.001Z,2.03
2023-04-22T16:38:29.507Z,2.67
2023-04-22T16:40:56.988Z,2.23
2023-04-22T16:43:24.471Z,3.30
2023-04-22T16:45:52.218Z,2.10
2023-04-22T16:48:19.671Z,2.17
2023-04-22T16:50:48.841Z,1.70
2023-04-22T16:53:16.281Z,2.10
2023-04-22T16:55:43.726Z,2.13
2023-04-22T16:58:12.378Z,2.20
2023-04-22T17:00:40.192Z,1.80
2023-04-22T17:03:07.933Z,2.20
2023-04-22T17:05:35.623Z,13.80
2023-04-22T17:08:04.405Z,4.53
2023-04-22T17:10:32.632Z,3.80
2023-04-22T17:13:00.149Z,4.57
2023-04-22T17:15:29.346Z,2.23
2023-04-22T17:17:57.074Z,2.60
2023-04-22T17:20:25.398Z,2.83
2023-04-22T17:22:52.954Z,10.67
2023-04-22T17:25:22.177Z,42.00
2023-04-22T17:27:49.653Z,9.53
2023-04-22T17:30:17.243Z,5.07
2023-04-22T17:32:44.784Z,5.40
2023-04-22T17:35:12.411Z,6.70
2023-04-22T17:37:40.268Z,4.00
2023-04-22T17:40:09.310Z,4.57
2023-04-22T17:42:46.029Z,4.60
2023-04-22T17:45:14.256Z,3.30
2023-04-22T17:47:41.756Z,4.40
2023-04-22T17:50:09.830Z,3.30
2023-04-22T17:52:37.363Z,3.00
2023-04-22T17:55:05.879Z,3.63
2023-04-22T17:57:33.449Z,4.23
2023-04-22T18:00:02.934Z,3.63
2023-04-22T18:02:35.041Z,3.03
2023-04-22T18:05:02.807Z,3.23
2023-04-22T18:07:30.312Z,5.83
2023-04-22T18:09:57.864Z,2.83
2023-04-22T18:12:30.314Z,3.70
2023-04-22T18:14:58.182Z,3.97
2023-04-22T18:17:27.022Z,2.83
2023-04-22T18:20:00.079Z,5.33
2023-04-22T18:22:33.973Z,4.30
2023-04-22T18:25:01.932Z,4.33
2023-04-22T18:27:29.529Z,2.60
2023-04-22T18:29:57.136Z,3.67
2023-04-22T18:32:24.906Z,9.77
2023-04-22T18:34:53.805Z,2.87
2023-04-22T18:37:21.674Z,5.20
2023-04-22T18:39:49.333Z,13.07
2023-04-22T18:42:16.809Z,11.57
2023-04-22T18:44:44.420Z,5.20
2023-04-22T18:47:11.846Z,5.50
2023-04-22T18:49:39.315Z,2.73
2023-04-22T18:52:08.310Z,4.87
2023-04-22T18:54:36.089Z,6.67
2023-04-22T18:57:03.566Z,3.43
2023-04-22T18:59:31.097Z,5.60
2023-04-22T19:01:58.572Z,4.07
2023-04-22T19:04:26.168Z,9.50
2023-04-22T19:06:54.959Z,5.93
2023-04-22T19:09:24.318Z,2.67
2023-04-22T19:11:51.787Z,2.80
2023-04-22T19:14:19.622Z,3.10
2023-04-22T19:16:47.138Z,4.03
2023-04-22T19:19:14.709Z,4.70
2023-04-22T19:21:42.356Z,2.70
2023-04-22T19:24:10.727Z,4.73
2023-04-22T19:26:39.753Z,3.87
2023-04-22T19:29:07.605Z,4.00
2023-04-22T19:31:35.235Z,2.60
2023-04-22T19:34:03.092Z,4.03
2023-04-22T19:36:31.764Z,3.77
2023-04-22T19:38:59.403Z,2.83
2023-04-22T19:41:27.013Z,4.17
2023-04-22T19:43:57.811Z,5.80
2023-04-22T19:46:25.621Z,3.10
2023-04-22T19:48:53.700Z,6.50
2023-04-22T19:51:22.572Z,3.50
2023-04-22T19:53:50.988Z,4.57
2023-04-22T19:56:19.031Z,4.60
2023-04-22T19:58:47.127Z,3.30
2023-04-22T20:01:16.449Z,3.00
2023-04-22T20:03:45.156Z,3.53
2023-04-22T20:06:13.688Z,3.67
2023-04-22T20:08:42.354Z,3.50
2023-04-22T20:11:11.461Z,3.07
2023-04-22T20:13:40.557Z,3.20
2023-04-22T20:16:09.529Z,3.27
2023-04-22T20:18:38.798Z,3.83
2023-04-22T20:21:06.496Z,4.20
2023-04-22T20:23:34.828Z,4.40
2023-04-22T20:26:03.210Z,3.83
2023-04-22T20:28:48.267Z,4.50
2023-04-22T20:31:18.441Z,4.30
2023-04-22T20:33:48.331Z,5.80
2023-04-22T20:36:18.623Z,7.57
2023-04-22T20:38:48.851Z,6.03
2023-04-22T20:41:18.108Z,6.37
2023-04-22T20:43:45.919Z,6.20
2023-04-22T20:46:14.053Z,4.30
2023-04-22T20:48:42.751Z,4.27
2023-04-22T20:51:12.506Z,3.80
2023-04-22T20:53:40.991Z,6.90
2023-04-22T20:56:08.844Z,4.67
2023-04-22T20:58:36.401Z,4.20
2023-04-22T21:01:05.695Z,5.40
2023-04-22T21:03:34.822Z,4.77
2023-04-22T21:06:03.375Z,3.43
2023-04-22T21:08:36.874Z,4.40
2023-04-22T21:11:04.914Z,5.30
2023-04-22T21:13:33.046Z,4.30
2023-04-22T21:16:03.775Z,4.10
2023-04-22T21:18:34.036Z,5.97
2023-04-22T21:21:04.167Z,4.53
2023-04-22T21:23:34.050Z,4.87
2023-04-22T21:26:03.376Z,5.23
2023-04-22T21:28:31.698Z,4.70
2023-04-22T21:31:00.404Z,8.67
2023-04-22T21:33:27.942Z,5.87
2023-04-22T21:35:56.475Z,6.13
2023-04-22T21:38:24.033Z,7.60
2023-04-22T21:40:52.972Z,7.37
2023-04-22T21:43:20.552Z,6.17
2023-04-22T21:45:48.055Z,5.07
2023-04-22T21:48:15.589Z,5.30
2023-04-22T21:50:43.154Z,5.03
2023-04-22T21:53:11.054Z,5.73
2023-04-22T21:55:38.647Z,6.20
2023-04-22T21:58:07.552Z,9.20
2023-04-22T22:00:35.107Z,6.47
2023-04-22T22:03:02.772Z,5.47
2023-04-22T22:05:30.723Z,5.73
2023-04-22T22:07:58.242Z,5.60
2023-04-22T22:10:26.151Z,5.17
2023-04-22T22:12:53.722Z,5.30
2023-04-22T22:15:22.887Z,6.37
2023-04-22T22:17:50.891Z,4.43
2023-04-22T22:20:20.259Z,5.37
2023-04-22T22:22:48.672Z,5.23
2023-04-22T22:25:17.076Z,5.63
2023-04-22T22:27:47.089Z,5.70
2023-04-22T22:30:15.174Z,10.50
2023-04-22T22:32:44.046Z,4.10
2023-04-22T22:35:11.948Z,3.80
2023-04-22T22:37:39.614Z,5.37
2023-04-22T22:40:08.691Z,3.37
2023-04-22T22:42:39.065Z,4.10
2023-04-22T22:45:07.491Z,5.00
2023-04-22T22:47:35.175Z,3.80
2023-04-22T22:50:04.709Z,4.10
2023-04-22T22:52:32.376Z,3.90
2023-04-22T22:55:00.780Z,4.87
2023-04-22T22:57:28.346Z,3.60
2023-04-22T22:59:55.942Z,4.87
2023-04-22T23:02:23.692Z,4.03
2023-04-22T23:04:51.811Z,3.63
2023-04-22T23:07:20.845Z,4.13
2023-04-22T23:09:48.364Z,3.60
2023-04-22T23:12:15.961Z,3.73
2023-04-22T23:14:43.703Z,3.43
2023-04-22T23:17:11.279Z,5.10
2023-04-22T23:19:39.917Z,3.97
2023-04-22T23:22:08.095Z,4.67
2023-04-22T23:24:37.719Z,6.90
2023-04-22T23:27:05.783Z,3.57
2023-04-22T23:29:33.884Z,3.73
2023-04-22T23:32:04.429Z,3.73
2023-04-22T23:34:35.047Z,3.93
2023-04-22T23:37:05.210Z,4.40
2023-04-22T23:39:32.909Z,3.47
2023-04-22T23:42:02.480Z,4.37
2023-04-22T23:44:29.986Z,2.87
2023-04-22T23:46:57.559Z,3.50
2023-04-22T23:49:25.081Z,3.10
2023-04-22T23:51:52.540Z,3.27
2023-04-22T23:54:20.024Z,3.20
2023-04-22T23:56:48.212Z,3.67
2023-04-22T23:59:17.616Z,2.97
